sensor_id;sensor_type;location;lat;lon;timestamp;P1;durP1;ratioP1;P2;durP2;ratioP2
10295;SDS011;5193;51.032;6.356;2023-08-30T00:00:35;9.50;;;5.20;;
10295;SDS011;5193;51.032;6.356;2023-08-30T00:03:01;8.03;;;5.87;;
10295;SDS011;5193;51.032;6.356;2023-08-30T00:05:27;5.93;;;5.27;;
10295;SDS011;5193;51.032;6.356;2023-08-30T00:07:53;7.40;;;5.03;;
10295;SDS011;5193;51.032;6.356;2023-08-30T00:10:19;7.77;;;5.30;;
10295;SDS011;5193;51.032;6.356;2023-08-30T00:12:45;8.27;;;5.77;;
10295;SDS011;5193;51.032;6.356;2023-08-30T00:15:10;8.40;;;6.77;;
10295;SDS011;5193;51.032;6.356;2023-08-30T00:17:36;7.07;;;5.40;;
10295;SDS011;5193;51.032;6.356;2023-08-30T00:20:02;6.13;;;5.53;;
10295;SDS011;5193;51.032;6.356;2023-08-30T00:22:28;7.87;;;5.73;;
10295;SDS011;5193;51.032;6.356;2023-08-30T00:24:54;9.63;;;5.73;;
10295;SDS011;5193;51.032;6.356;2023-08-30T00:27:19;6.57;;;5.73;;
10295;SDS011;5193;51.032;6.356;2023-08-30T00:29:48;6.17;;;5.57;;
10295;SDS011;5193;51.032;6.356;2023-08-30T00:32:13;10.67;;;6.03;;
10295;SDS011;5193;51.032;6.356;2023-08-30T00:34:39;6.10;;;5.33;;
10295;SDS011;5193;51.032;6.356;2023-08-30T00:37:04;7.57;;;5.37;;
10295;SDS011;5193;51.032;6.356;2023-08-30T00:39:30;5.70;;;5.10;;
10295;SDS011;5193;51.032;6.356;2023-08-30T00:41:56;6.10;;;5.23;;
10295;SDS011;5193;51.032;6.356;2023-08-30T00:44:21;6.83;;;5.27;;
10295;SDS011;5193;51.032;6.356;2023-08-30T00:46:47;6.97;;;5.27;;
10295;SDS011;5193;51.032;6.356;2023-08-30T00:49:13;7.50;;;5.07;;
10295;SDS011;5193;51.032;6.356;2023-08-30T00:51:39;7.00;;;5.30;;
10295;SDS011;5193;51.032;6.356;2023-08-30T00:54:05;6.77;;;4.73;;
10295;SDS011;5193;51.032;6.356;2023-08-30T00:56:32;12.20;;;5.53;;
10295;SDS011;5193;51.032;6.356;2023-08-30T00:58:58;6.87;;;5.50;;
10295;SDS011;5193;51.032;6.356;2023-08-30T01:01:25;6.87;;;5.17;;
10295;SDS011;5193;51.032;6.356;2023-08-30T01:03:51;5.43;;;4.80;;
10295;SDS011;5193;51.032;6.356;2023-08-30T01:06:17;5.20;;;4.70;;
10295;SDS011;5193;51.032;6.356;2023-08-30T01:08:42;5.73;;;5.13;;
10295;SDS011;5193;51.032;6.356;2023-08-30T01:11:11;7.80;;;5.57;;
10295;SDS011;5193;51.032;6.356;2023-08-30T01:13:56;5.70;;;5.03;;
10295;SDS011;5193;51.032;6.356;2023-08-30T01:16:26;5.83;;;4.90;;
10295;SDS011;5193;51.032;6.356;2023-08-30T01:18:56;6.17;;;5.27;;
10295;SDS011;5193;51.032;6.356;2023-08-30T01:24:23;6.93;;;5.27;;
10295;SDS011;5193;51.032;6.356;2023-08-30T01:27:07;5.73;;;5.23;;
10295;SDS011;5193;51.032;6.356;2023-08-30T01:29:34;6.37;;;5.37;;
10295;SDS011;5193;51.032;6.356;2023-08-30T01:32:03;9.53;;;5.50;;
10295;SDS011;5193;51.032;6.356;2023-08-30T01:34:30;6.93;;;5.20;;
10295;SDS011;5193;51.032;6.356;2023-08-30T01:36:57;7.30;;;5.43;;
10295;SDS011;5193;51.032;6.356;2023-08-30T01:39:23;8.10;;;5.70;;
10295;SDS011;5193;51.032;6.356;2023-08-30T01:41:50;7.30;;;5.70;;
10295;SDS011;5193;51.032;6.356;2023-08-30T01:44:17;6.17;;;5.57;;
10295;SDS011;5193;51.032;6.356;2023-08-30T01:46:43;6.90;;;5.27;;
10295;SDS011;5193;51.032;6.356;2023-08-30T01:49:11;13.20;;;5.83;;
10295;SDS011;5193;51.032;6.356;2023-08-30T01:51:37;7.20;;;5.37;;
10295;SDS011;5193;51.032;6.356;2023-08-30T01:54:04;9.00;;;5.77;;
10295;SDS011;5193;51.032;6.356;2023-08-30T01:56:32;6.70;;;5.60;;
10295;SDS011;5193;51.032;6.356;2023-08-30T01:58:58;12.23;;;6.10;;
10295;SDS011;5193;51.032;6.356;2023-08-30T02:01:24;7.03;;;6.33;;
10295;SDS011;5193;51.032;6.356;2023-08-30T02:03:49;7.27;;;5.90;;
10295;SDS011;5193;51.032;6.356;2023-08-30T02:06:21;7.67;;;6.67;;
10295;SDS011;5193;51.032;6.356;2023-08-30T02:08:55;7.37;;;6.37;;
10295;SDS011;5193;51.032;6.356;2023-08-30T02:11:27;6.90;;;6.20;;
10295;SDS011;5193;51.032;6.356;2023-08-30T02:13:56;7.87;;;5.80;;
10295;SDS011;5193;51.032;6.356;2023-08-30T02:16:25;7.47;;;6.07;;
10295;SDS011;5193;51.032;6.356;2023-08-30T02:18:52;8.53;;;6.03;;
10295;SDS011;5193;51.032;6.356;2023-08-30T02:21:18;8.50;;;6.60;;
10295;SDS011;5193;51.032;6.356;2023-08-30T02:23:48;11.50;;;6.03;;
10295;SDS011;5193;51.032;6.356;2023-08-30T02:26:17;10.70;;;6.40;;
10295;SDS011;5193;51.032;6.356;2023-08-30T02:28:46;7.83;;;6.23;;
10295;SDS011;5193;51.032;6.356;2023-08-30T02:31:12;7.70;;;6.83;;
10295;SDS011;5193;51.032;6.356;2023-08-30T02:33:37;7.73;;;6.33;;
10295;SDS011;5193;51.032;6.356;2023-08-30T02:36:03;8.57;;;6.60;;
10295;SDS011;5193;51.032;6.356;2023-08-30T02:38:29;11.20;;;6.80;;
10295;SDS011;5193;51.032;6.356;2023-08-30T02:40:55;8.93;;;6.03;;
10295;SDS011;5193;51.032;6.356;2023-08-30T02:43:21;8.20;;;6.33;;
10295;SDS011;5193;51.032;6.356;2023-08-30T02:45:49;7.50;;;6.30;;
10295;SDS011;5193;51.032;6.356;2023-08-30T02:48:14;7.87;;;6.67;;
10295;SDS011;5193;51.032;6.356;2023-08-30T02:50:40;9.53;;;6.73;;
10295;SDS011;5193;51.032;6.356;2023-08-30T02:53:06;7.57;;;6.53;;
10295;SDS011;5193;51.032;6.356;2023-08-30T02:55:34;7.43;;;6.63;;
10295;SDS011;5193;51.032;6.356;2023-08-30T02:58:00;8.83;;;6.97;;
10295;SDS011;5193;51.032;6.356;2023-08-30T03:00:26;12.33;;;6.93;;
10295;SDS011;5193;51.032;6.356;2023-08-30T03:02:52;9.77;;;7.13;;
10295;SDS011;5193;51.032;6.356;2023-08-30T03:05:18;8.97;;;7.03;;
10295;SDS011;5193;51.032;6.356;2023-08-30T03:07:44;8.80;;;7.47;;
10295;SDS011;5193;51.032;6.356;2023-08-30T03:10:10;11.90;;;8.00;;
10295;SDS011;5193;51.032;6.356;2023-08-30T03:12:36;7.67;;;6.87;;
10295;SDS011;5193;51.032;6.356;2023-08-30T03:15:02;9.80;;;7.70;;
10295;SDS011;5193;51.032;6.356;2023-08-30T03:17:29;8.80;;;7.17;;
10295;SDS011;5193;51.032;6.356;2023-08-30T03:19:56;13.30;;;7.93;;
10295;SDS011;5193;51.032;6.356;2023-08-30T03:22:21;9.43;;;7.37;;
10295;SDS011;5193;51.032;6.356;2023-08-30T03:24:47;9.97;;;7.83;;
10295;SDS011;5193;51.032;6.356;2023-08-30T03:27:14;9.50;;;7.53;;
10295;SDS011;5193;51.032;6.356;2023-08-30T03:29:40;9.87;;;7.70;;
10295;SDS011;5193;51.032;6.356;2023-08-30T03:32:06;10.10;;;8.27;;
10295;SDS011;5193;51.032;6.356;2023-08-30T03:34:32;10.60;;;7.90;;
10295;SDS011;5193;51.032;6.356;2023-08-30T03:36:57;10.00;;;7.93;;
10295;SDS011;5193;51.032;6.356;2023-08-30T03:39:23;11.17;;;8.50;;
10295;SDS011;5193;51.032;6.356;2023-08-30T03:41:49;10.30;;;8.00;;
10295;SDS011;5193;51.032;6.356;2023-08-30T03:44:15;10.27;;;8.30;;
10295;SDS011;5193;51.032;6.356;2023-08-30T03:46:41;11.47;;;8.50;;
10295;SDS011;5193;51.032;6.356;2023-08-30T03:49:06;14.50;;;8.87;;
10295;SDS011;5193;51.032;6.356;2023-08-30T03:51:32;10.13;;;8.13;;
10295;SDS011;5193;51.032;6.356;2023-08-30T03:53:58;10.37;;;8.50;;
10295;SDS011;5193;51.032;6.356;2023-08-30T03:56:23;10.43;;;7.97;;
10295;SDS011;5193;51.032;6.356;2023-08-30T03:58:49;10.47;;;7.77;;
10295;SDS011;5193;51.032;6.356;2023-08-30T04:01:15;13.37;;;8.97;;
10295;SDS011;5193;51.032;6.356;2023-08-30T04:03:40;13.30;;;8.87;;
10295;SDS011;5193;51.032;6.356;2023-08-30T04:06:06;13.17;;;9.37;;
10295;SDS011;5193;51.032;6.356;2023-08-30T04:08:32;12.10;;;9.77;;
10295;SDS011;5193;51.032;6.356;2023-08-30T04:10:57;10.03;;;9.03;;
10295;SDS011;5193;51.032;6.356;2023-08-30T04:13:23;14.17;;;9.70;;
10295;SDS011;5193;51.032;6.356;2023-08-30T04:15:49;11.73;;;9.83;;
10295;SDS011;5193;51.032;6.356;2023-08-30T04:18:15;12.13;;;9.80;;
10295;SDS011;5193;51.032;6.356;2023-08-30T04:20:44;11.20;;;9.97;;
10295;SDS011;5193;51.032;6.356;2023-08-30T04:23:11;11.80;;;9.77;;
10295;SDS011;5193;51.032;6.356;2023-08-30T04:25:37;11.53;;;9.33;;
10295;SDS011;5193;51.032;6.356;2023-08-30T04:28:03;14.50;;;10.20;;
10295;SDS011;5193;51.032;6.356;2023-08-30T04:30:29;12.77;;;9.43;;
10295;SDS011;5193;51.032;6.356;2023-08-30T04:32:54;11.07;;;9.40;;
10295;SDS011;5193;51.032;6.356;2023-08-30T04:35:20;15.27;;;9.40;;
10295;SDS011;5193;51.032;6.356;2023-08-30T04:37:46;13.20;;;9.77;;
10295;SDS011;5193;51.032;6.356;2023-08-30T04:40:13;10.43;;;9.37;;
10295;SDS011;5193;51.032;6.356;2023-08-30T04:42:39;14.97;;;9.10;;
10295;SDS011;5193;51.032;6.356;2023-08-30T04:45:05;12.20;;;9.40;;
10295;SDS011;5193;51.032;6.356;2023-08-30T04:47:32;11.77;;;8.83;;
10295;SDS011;5193;51.032;6.356;2023-08-30T04:49:58;12.27;;;8.80;;
10295;SDS011;5193;51.032;6.356;2023-08-30T04:52:23;11.67;;;9.40;;
10295;SDS011;5193;51.032;6.356;2023-08-30T04:54:49;12.03;;;9.17;;
10295;SDS011;5193;51.032;6.356;2023-08-30T04:57:15;13.17;;;9.40;;
10295;SDS011;5193;51.032;6.356;2023-08-30T04:59:42;11.93;;;9.47;;
10295;SDS011;5193;51.032;6.356;2023-08-30T05:02:09;12.03;;;9.77;;
10295;SDS011;5193;51.032;6.356;2023-08-30T05:04:34;9.57;;;8.40;;
10295;SDS011;5193;51.032;6.356;2023-08-30T05:07:00;11.53;;;9.23;;
10295;SDS011;5193;51.032;6.356;2023-08-30T05:09:26;11.03;;;8.57;;
10295;SDS011;5193;51.032;6.356;2023-08-30T05:11:52;12.50;;;8.90;;
10295;SDS011;5193;51.032;6.356;2023-08-30T05:14:18;12.60;;;9.03;;
10295;SDS011;5193;51.032;6.356;2023-08-30T05:16:44;11.73;;;9.10;;
10295;SDS011;5193;51.032;6.356;2023-08-30T05:19:10;12.40;;;9.83;;
10295;SDS011;5193;51.032;6.356;2023-08-30T05:21:36;13.37;;;9.60;;
10295;SDS011;5193;51.032;6.356;2023-08-30T05:24:03;14.57;;;8.97;;
10295;SDS011;5193;51.032;6.356;2023-08-30T05:26:30;14.07;;;9.07;;
10295;SDS011;5193;51.032;6.356;2023-08-30T05:28:57;13.47;;;10.00;;
10295;SDS011;5193;51.032;6.356;2023-08-30T05:31:23;10.50;;;8.57;;
10295;SDS011;5193;51.032;6.356;2023-08-30T05:33:48;13.63;;;8.97;;
10295;SDS011;5193;51.032;6.356;2023-08-30T05:36:14;9.97;;;8.73;;
10295;SDS011;5193;51.032;6.356;2023-08-30T05:38:39;10.63;;;8.67;;
10295;SDS011;5193;51.032;6.356;2023-08-30T05:41:06;13.67;;;9.40;;
10295;SDS011;5193;51.032;6.356;2023-08-30T05:43:31;11.43;;;9.27;;
10295;SDS011;5193;51.032;6.356;2023-08-30T05:45:57;12.60;;;9.03;;
10295;SDS011;5193;51.032;6.356;2023-08-30T05:48:27;13.23;;;9.20;;
10295;SDS011;5193;51.032;6.356;2023-08-30T05:50:54;11.67;;;8.70;;
10295;SDS011;5193;51.032;6.356;2023-08-30T05:53:19;13.23;;;8.30;;
10295;SDS011;5193;51.032;6.356;2023-08-30T05:55:45;16.17;;;9.40;;
10295;SDS011;5193;51.032;6.356;2023-08-30T05:58:10;12.57;;;9.50;;
10295;SDS011;5193;51.032;6.356;2023-08-30T06:00:36;12.77;;;8.73;;
10295;SDS011;5193;51.032;6.356;2023-08-30T06:03:02;13.80;;;8.80;;
10295;SDS011;5193;51.032;6.356;2023-08-30T06:05:28;12.33;;;8.87;;
10295;SDS011;5193;51.032;6.356;2023-08-30T06:07:54;10.83;;;8.20;;
10295;SDS011;5193;51.032;6.356;2023-08-30T06:10:20;12.77;;;8.47;;
10295;SDS011;5193;51.032;6.356;2023-08-30T06:12:47;12.07;;;7.90;;
10295;SDS011;5193;51.032;6.356;2023-08-30T06:15:13;10.00;;;8.47;;
10295;SDS011;5193;51.032;6.356;2023-08-30T06:17:38;11.10;;;7.87;;
10295;SDS011;5193;51.032;6.356;2023-08-30T06:20:04;14.10;;;8.70;;
10295;SDS011;5193;51.032;6.356;2023-08-30T06:22:30;10.37;;;7.90;;
10295;SDS011;5193;51.032;6.356;2023-08-30T06:24:56;13.00;;;8.90;;
10295;SDS011;5193;51.032;6.356;2023-08-30T06:27:22;10.23;;;7.63;;
10295;SDS011;5193;51.032;6.356;2023-08-30T06:29:49;8.97;;;7.17;;
10295;SDS011;5193;51.032;6.356;2023-08-30T06:32:15;10.80;;;7.93;;
10295;SDS011;5193;51.032;6.356;2023-08-30T06:34:42;12.97;;;7.47;;
10295;SDS011;5193;51.032;6.356;2023-08-30T06:37:07;11.13;;;7.43;;
10295;SDS011;5193;51.032;6.356;2023-08-30T06:39:33;10.23;;;7.20;;
10295;SDS011;5193;51.032;6.356;2023-08-30T06:42:00;12.27;;;7.53;;
10295;SDS011;5193;51.032;6.356;2023-08-30T06:44:26;10.03;;;7.10;;
10295;SDS011;5193;51.032;6.356;2023-08-30T06:46:53;10.07;;;7.07;;
10295;SDS011;5193;51.032;6.356;2023-08-30T06:49:19;9.67;;;7.30;;
10295;SDS011;5193;51.032;6.356;2023-08-30T06:51:45;10.73;;;6.73;;
10295;SDS011;5193;51.032;6.356;2023-08-30T06:54:10;12.17;;;7.43;;
10295;SDS011;5193;51.032;6.356;2023-08-30T06:56:36;7.63;;;6.83;;
10295;SDS011;5193;51.032;6.356;2023-08-30T06:59:01;10.00;;;6.70;;
10295;SDS011;5193;51.032;6.356;2023-08-30T07:01:27;9.33;;;7.50;;
10295;SDS011;5193;51.032;6.356;2023-08-30T07:03:52;10.90;;;7.33;;
10295;SDS011;5193;51.032;6.356;2023-08-30T07:06:18;8.57;;;7.03;;
10295;SDS011;5193;51.032;6.356;2023-08-30T07:08:44;10.40;;;6.57;;
10295;SDS011;5193;51.032;6.356;2023-08-30T07:11:09;7.60;;;6.50;;
10295;SDS011;5193;51.032;6.356;2023-08-30T07:13:36;8.33;;;6.13;;
10295;SDS011;5193;51.032;6.356;2023-08-30T07:16:02;8.30;;;6.17;;
10295;SDS011;5193;51.032;6.356;2023-08-30T07:18:28;7.53;;;5.73;;
10295;SDS011;5193;51.032;6.356;2023-08-30T07:20:54;5.53;;;4.77;;
10295;SDS011;5193;51.032;6.356;2023-08-30T07:23:20;9.57;;;5.27;;
10295;SDS011;5193;51.032;6.356;2023-08-30T07:25:45;7.67;;;4.67;;
10295;SDS011;5193;51.032;6.356;2023-08-30T07:28:11;6.93;;;4.27;;
10295;SDS011;5193;51.032;6.356;2023-08-30T07:30:36;8.57;;;4.23;;
10295;SDS011;5193;51.032;6.356;2023-08-30T07:33:04;9.43;;;4.67;;
10295;SDS011;5193;51.032;6.356;2023-08-30T07:35:30;7.90;;;3.70;;
10295;SDS011;5193;51.032;6.356;2023-08-30T07:37:57;5.77;;;4.10;;
10295;SDS011;5193;51.032;6.356;2023-08-30T07:40:23;9.23;;;4.10;;
10295;SDS011;5193;51.032;6.356;2023-08-30T07:42:53;5.60;;;3.47;;
10295;SDS011;5193;51.032;6.356;2023-08-30T07:45:18;4.97;;;3.43;;
10295;SDS011;5193;51.032;6.356;2023-08-30T07:47:44;5.73;;;3.37;;
10295;SDS011;5193;51.032;6.356;2023-08-30T07:50:10;4.90;;;3.07;;
10295;SDS011;5193;51.032;6.356;2023-08-30T07:52:35;4.83;;;3.40;;
10295;SDS011;5193;51.032;6.356;2023-08-30T07:55:01;7.13;;;3.60;;
10295;SDS011;5193;51.032;6.356;2023-08-30T07:57:27;5.97;;;3.37;;
10295;SDS011;5193;51.032;6.356;2023-08-30T07:59:52;4.90;;;3.40;;
10295;SDS011;5193;51.032;6.356;2023-08-30T08:02:19;5.47;;;3.03;;
10295;SDS011;5193;51.032;6.356;2023-08-30T08:04:46;7.30;;;3.10;;
10295;SDS011;5193;51.032;6.356;2023-08-30T08:07:12;4.73;;;2.93;;
10295;SDS011;5193;51.032;6.356;2023-08-30T08:09:37;6.33;;;3.63;;
10295;SDS011;5193;51.032;6.356;2023-08-30T08:12:03;5.50;;;3.80;;
10295;SDS011;5193;51.032;6.356;2023-08-30T08:14:29;6.47;;;3.40;;
10295;SDS011;5193;51.032;6.356;2023-08-30T08:16:54;6.50;;;3.80;;
10295;SDS011;5193;51.032;6.356;2023-08-30T08:19:20;5.77;;;4.10;;
10295;SDS011;5193;51.032;6.356;2023-08-30T08:21:46;7.23;;;3.77;;
10295;SDS011;5193;51.032;6.356;2023-08-30T08:24:12;7.57;;;4.50;;
10295;SDS011;5193;51.032;6.356;2023-08-30T08:26:38;7.40;;;4.30;;
10295;SDS011;5193;51.032;6.356;2023-08-30T08:29:04;5.17;;;4.07;;
10295;SDS011;5193;51.032;6.356;2023-08-30T08:31:29;6.20;;;4.10;;
10295;SDS011;5193;51.032;6.356;2023-08-30T08:34:06;8.43;;;4.47;;
10295;SDS011;5193;51.032;6.356;2023-08-30T08:36:35;7.80;;;4.07;;
10295;SDS011;5193;51.032;6.356;2023-08-30T08:39:00;6.77;;;3.70;;
10295;SDS011;5193;51.032;6.356;2023-08-30T08:41:28;5.37;;;3.93;;
10295;SDS011;5193;51.032;6.356;2023-08-30T08:44:03;7.27;;;4.33;;
10295;SDS011;5193;51.032;6.356;2023-08-30T08:46:32;5.70;;;3.27;;
10295;SDS011;5193;51.032;6.356;2023-08-30T08:49:01;5.87;;;3.40;;
10295;SDS011;5193;51.032;6.356;2023-08-30T08:51:40;4.73;;;3.27;;
10295;SDS011;5193;51.032;6.356;2023-08-30T08:54:07;4.43;;;3.53;;
10295;SDS011;5193;51.032;6.356;2023-08-30T08:56:34;5.20;;;3.03;;
10295;SDS011;5193;51.032;6.356;2023-08-30T08:59:00;6.10;;;3.30;;
10295;SDS011;5193;51.032;6.356;2023-08-30T09:01:29;5.63;;;3.13;;
10295;SDS011;5193;51.032;6.356;2023-08-30T09:03:58;5.77;;;2.83;;
10295;SDS011;5193;51.032;6.356;2023-08-30T09:06:24;3.90;;;2.57;;
10295;SDS011;5193;51.032;6.356;2023-08-30T09:08:50;3.93;;;2.90;;
10295;SDS011;5193;51.032;6.356;2023-08-30T09:11:16;5.60;;;3.00;;
10295;SDS011;5193;51.032;6.356;2023-08-30T09:13:42;6.43;;;2.70;;
10295;SDS011;5193;51.032;6.356;2023-08-30T09:16:14;2.97;;;2.40;;
10295;SDS011;5193;51.032;6.356;2023-08-30T09:18:41;2.70;;;2.03;;
10295;SDS011;5193;51.032;6.356;2023-08-30T09:21:07;3.63;;;2.37;;
10295;SDS011;5193;51.032;6.356;2023-08-30T09:23:34;3.13;;;2.10;;
10295;SDS011;5193;51.032;6.356;2023-08-30T09:26:00;3.20;;;2.50;;
10295;SDS011;5193;51.032;6.356;2023-08-30T09:28:27;3.07;;;1.90;;
10295;SDS011;5193;51.032;6.356;2023-08-30T09:30:54;4.07;;;2.40;;
10295;SDS011;5193;51.032;6.356;2023-08-30T09:33:20;4.17;;;2.07;;
10295;SDS011;5193;51.032;6.356;2023-08-30T09:35:54;8.67;;;2.23;;
10295;SDS011;5193;51.032;6.356;2023-08-30T09:38:20;2.10;;;1.90;;
10295;SDS011;5193;51.032;6.356;2023-08-30T09:40:46;2.83;;;2.13;;
10295;SDS011;5193;51.032;6.356;2023-08-30T09:43:12;4.37;;;2.17;;
10295;SDS011;5193;51.032;6.356;2023-08-30T09:45:39;3.27;;;2.00;;
10295;SDS011;5193;51.032;6.356;2023-08-30T09:48:05;2.07;;;1.70;;
10295;SDS011;5193;51.032;6.356;2023-08-30T09:50:33;2.27;;;1.80;;
10295;SDS011;5193;51.032;6.356;2023-08-30T09:53:02;6.37;;;2.00;;
10295;SDS011;5193;51.032;6.356;2023-08-30T09:55:36;3.90;;;1.80;;
10295;SDS011;5193;51.032;6.356;2023-08-30T09:58:02;5.63;;;1.87;;
10295;SDS011;5193;51.032;6.356;2023-08-30T10:00:31;5.10;;;1.87;;
10295;SDS011;5193;51.032;6.356;2023-08-30T10:03:01;2.77;;;1.67;;
10295;SDS011;5193;51.032;6.356;2023-08-30T10:05:28;4.20;;;2.27;;
10295;SDS011;5193;51.032;6.356;2023-08-30T10:07:56;3.63;;;2.47;;
10295;SDS011;5193;51.032;6.356;2023-08-30T10:10:23;2.97;;;2.03;;
10295;SDS011;5193;51.032;6.356;2023-08-30T10:12:50;3.43;;;2.30;;
10295;SDS011;5193;51.032;6.356;2023-08-30T10:15:17;4.80;;;2.77;;
10295;SDS011;5193;51.032;6.356;2023-08-30T10:17:46;3.73;;;2.30;;
10295;SDS011;5193;51.032;6.356;2023-08-30T10:20:16;2.77;;;1.77;;
10295;SDS011;5193;51.032;6.356;2023-08-30T10:22:42;3.27;;;2.30;;
10295;SDS011;5193;51.032;6.356;2023-08-30T10:25:10;2.93;;;2.17;;
10295;SDS011;5193;51.032;6.356;2023-08-30T10:27:42;4.27;;;2.30;;
10295;SDS011;5193;51.032;6.356;2023-08-30T10:30:11;6.07;;;2.07;;
10295;SDS011;5193;51.032;6.356;2023-08-30T10:32:41;4.77;;;2.77;;
10295;SDS011;5193;51.032;6.356;2023-08-30T10:35:11;6.37;;;3.17;;
10295;SDS011;5193;51.032;6.356;2023-08-30T10:37:41;2.93;;;2.63;;
10295;SDS011;5193;51.032;6.356;2023-08-30T10:40:08;4.53;;;2.70;;
10295;SDS011;5193;51.032;6.356;2023-08-30T10:42:34;3.10;;;2.53;;
10295;SDS011;5193;51.032;6.356;2023-08-30T10:45:06;5.03;;;2.90;;
10295;SDS011;5193;51.032;6.356;2023-08-30T10:47:36;4.43;;;2.63;;
10295;SDS011;5193;51.032;6.356;2023-08-30T10:50:27;3.23;;;2.93;;
10295;SDS011;5193;51.032;6.356;2023-08-30T10:52:59;4.67;;;3.20;;
10295;SDS011;5193;51.032;6.356;2023-08-30T10:55:25;3.67;;;3.20;;
10295;SDS011;5193;51.032;6.356;2023-08-30T10:57:58;4.77;;;3.40;;
10295;SDS011;5193;51.032;6.356;2023-08-30T11:00:28;3.63;;;3.33;;
10295;SDS011;5193;51.032;6.356;2023-08-30T11:02:55;3.37;;;3.00;;
10295;SDS011;5193;51.032;6.356;2023-08-30T11:05:21;5.97;;;3.00;;
10295;SDS011;5193;51.032;6.356;2023-08-30T11:07:49;4.23;;;3.07;;
10295;SDS011;5193;51.032;6.356;2023-08-30T11:10:16;3.37;;;3.07;;
10295;SDS011;5193;51.032;6.356;2023-08-30T11:12:42;3.93;;;2.70;;
10295;SDS011;5193;51.032;6.356;2023-08-30T11:15:09;4.03;;;2.90;;
10295;SDS011;5193;51.032;6.356;2023-08-30T11:17:36;3.23;;;2.73;;
10295;SDS011;5193;51.032;6.356;2023-08-30T11:20:08;3.10;;;2.63;;
10295;SDS011;5193;51.032;6.356;2023-08-30T11:22:36;3.00;;;2.57;;
10295;SDS011;5193;51.032;6.356;2023-08-30T11:25:07;3.50;;;2.50;;
10295;SDS011;5193;51.032;6.356;2023-08-30T11:27:34;3.97;;;2.87;;
10295;SDS011;5193;51.032;6.356;2023-08-30T11:30:00;3.20;;;2.90;;
10295;SDS011;5193;51.032;6.356;2023-08-30T11:32:28;3.30;;;2.80;;
10295;SDS011;5193;51.032;6.356;2023-08-30T11:34:57;3.23;;;2.83;;
10295;SDS011;5193;51.032;6.356;2023-08-30T11:37:26;3.67;;;2.70;;
10295;SDS011;5193;51.032;6.356;2023-08-30T11:39:56;2.93;;;2.63;;
10295;SDS011;5193;51.032;6.356;2023-08-30T11:42:22;4.00;;;2.50;;
10295;SDS011;5193;51.032;6.356;2023-08-30T11:44:49;4.40;;;2.40;;
10295;SDS011;5193;51.032;6.356;2023-08-30T11:47:20;2.87;;;2.07;;
10295;SDS011;5193;51.032;6.356;2023-08-30T11:49:48;3.10;;;2.30;;
10295;SDS011;5193;51.032;6.356;2023-08-30T11:52:15;2.50;;;2.30;;
10295;SDS011;5193;51.032;6.356;2023-08-30T11:54:42;2.80;;;2.13;;
10295;SDS011;5193;51.032;6.356;2023-08-30T11:57:08;2.83;;;1.90;;
10295;SDS011;5193;51.032;6.356;2023-08-30T11:59:34;1.90;;;1.80;;
10295;SDS011;5193;51.032;6.356;2023-08-30T12:02:03;2.27;;;2.07;;
10295;SDS011;5193;51.032;6.356;2023-08-30T12:04:30;3.10;;;2.00;;
10295;SDS011;5193;51.032;6.356;2023-08-30T12:06:56;3.67;;;2.00;;
10295;SDS011;5193;51.032;6.356;2023-08-30T12:09:22;3.50;;;2.10;;
10295;SDS011;5193;51.032;6.356;2023-08-30T12:11:50;2.20;;;2.00;;
10295;SDS011;5193;51.032;6.356;2023-08-30T12:14:16;4.50;;;1.90;;
10295;SDS011;5193;51.032;6.356;2023-08-30T12:16:42;1.63;;;1.50;;
10295;SDS011;5193;51.032;6.356;2023-08-30T12:19:12;2.10;;;1.80;;
10295;SDS011;5193;51.032;6.356;2023-08-30T12:21:40;2.80;;;1.40;;
10295;SDS011;5193;51.032;6.356;2023-08-30T12:24:07;1.60;;;1.50;;
10295;SDS011;5193;51.032;6.356;2023-08-30T12:26:33;1.97;;;1.77;;
10295;SDS011;5193;51.032;6.356;2023-08-30T12:28:58;1.53;;;1.37;;
10295;SDS011;5193;51.032;6.356;2023-08-30T12:31:24;1.77;;;1.40;;
10295;SDS011;5193;51.032;6.356;2023-08-30T12:33:49;1.53;;;1.33;;
10295;SDS011;5193;51.032;6.356;2023-08-30T12:36:15;1.50;;;1.40;;
10295;SDS011;5193;51.032;6.356;2023-08-30T12:38:42;1.97;;;1.60;;
10295;SDS011;5193;51.032;6.356;2023-08-30T12:41:07;1.50;;;1.40;;
10295;SDS011;5193;51.032;6.356;2023-08-30T12:43:33;3.73;;;1.07;;
10295;SDS011;5193;51.032;6.356;2023-08-30T12:45:59;1.30;;;1.20;;
10295;SDS011;5193;51.032;6.356;2023-08-30T12:48:25;1.23;;;1.13;;
10295;SDS011;5193;51.032;6.356;2023-08-30T12:50:51;1.30;;;1.20;;
10295;SDS011;5193;51.032;6.356;2023-08-30T12:53:17;1.20;;;1.10;;
10295;SDS011;5193;51.032;6.356;2023-08-30T12:55:42;1.83;;;1.20;;
10295;SDS011;5193;51.032;6.356;2023-08-30T12:58:08;1.73;;;1.10;;
10295;SDS011;5193;51.032;6.356;2023-08-30T13:00:34;1.67;;;1.23;;
10295;SDS011;5193;51.032;6.356;2023-08-30T13:03:00;1.50;;;1.40;;
10295;SDS011;5193;51.032;6.356;2023-08-30T13:05:26;1.43;;;1.13;;
10295;SDS011;5193;51.032;6.356;2023-08-30T13:07:52;1.40;;;1.30;;
10295;SDS011;5193;51.032;6.356;2023-08-30T13:10:17;2.60;;;1.40;;
10295;SDS011;5193;51.032;6.356;2023-08-30T13:12:43;1.50;;;1.40;;
10295;SDS011;5193;51.032;6.356;2023-08-30T13:15:09;2.60;;;1.40;;
10295;SDS011;5193;51.032;6.356;2023-08-30T13:17:35;1.70;;;1.40;;
10295;SDS011;5193;51.032;6.356;2023-08-30T13:20:01;2.57;;;1.50;;
10295;SDS011;5193;51.032;6.356;2023-08-30T13:22:28;1.67;;;1.57;;
10295;SDS011;5193;51.032;6.356;2023-08-30T13:24:53;3.37;;;1.43;;
10295;SDS011;5193;51.032;6.356;2023-08-30T13:27:19;1.87;;;1.57;;
10295;SDS011;5193;51.032;6.356;2023-08-30T13:29:45;1.77;;;1.67;;
10295;SDS011;5193;51.032;6.356;2023-08-30T13:32:11;4.50;;;1.60;;
10295;SDS011;5193;51.032;6.356;2023-08-30T13:34:36;2.93;;;2.03;;
10295;SDS011;5193;51.032;6.356;2023-08-30T13:37:03;2.17;;;1.67;;
10295;SDS011;5193;51.032;6.356;2023-08-30T13:39:29;2.00;;;1.63;;
10295;SDS011;5193;51.032;6.356;2023-08-30T13:41:55;1.87;;;1.73;;
10295;SDS011;5193;51.032;6.356;2023-08-30T13:44:21;1.53;;;1.43;;
10295;SDS011;5193;51.032;6.356;2023-08-30T13:46:47;1.80;;;1.70;;
10295;SDS011;5193;51.032;6.356;2023-08-30T13:49:13;3.27;;;1.73;;
10295;SDS011;5193;51.032;6.356;2023-08-30T13:51:40;2.70;;;1.80;;
10295;SDS011;5193;51.032;6.356;2023-08-30T13:54:06;2.07;;;1.67;;
10295;SDS011;5193;51.032;6.356;2023-08-30T13:56:32;2.77;;;1.63;;
10295;SDS011;5193;51.032;6.356;2023-08-30T13:58:57;2.53;;;1.60;;
10295;SDS011;5193;51.032;6.356;2023-08-30T14:01:23;2.60;;;1.90;;
10295;SDS011;5193;51.032;6.356;2023-08-30T14:03:49;2.90;;;1.77;;
10295;SDS011;5193;51.032;6.356;2023-08-30T14:06:15;3.10;;;2.07;;
10295;SDS011;5193;51.032;6.356;2023-08-30T14:08:41;2.37;;;2.17;;
10295;SDS011;5193;51.032;6.356;2023-08-30T14:11:08;5.57;;;2.30;;
10295;SDS011;5193;51.032;6.356;2023-08-30T14:13:33;2.37;;;2.17;;
10295;SDS011;5193;51.032;6.356;2023-08-30T14:16:02;3.37;;;2.67;;
10295;SDS011;5193;51.032;6.356;2023-08-30T14:18:31;2.70;;;2.37;;
10295;SDS011;5193;51.032;6.356;2023-08-30T14:20:58;3.23;;;2.90;;
10295;SDS011;5193;51.032;6.356;2023-08-30T14:23:24;4.07;;;2.57;;
10295;SDS011;5193;51.032;6.356;2023-08-30T14:26:00;4.83;;;2.80;;
10295;SDS011;5193;51.032;6.356;2023-08-30T14:28:34;2.90;;;2.70;;
10295;SDS011;5193;51.032;6.356;2023-08-30T14:31:00;3.20;;;2.80;;
10295;SDS011;5193;51.032;6.356;2023-08-30T14:33:26;3.17;;;2.77;;
10295;SDS011;5193;51.032;6.356;2023-08-30T14:35:51;2.83;;;2.60;;
10295;SDS011;5193;51.032;6.356;2023-08-30T14:38:17;3.03;;;2.40;;
10295;SDS011;5193;51.032;6.356;2023-08-30T14:40:42;3.10;;;2.80;;
10295;SDS011;5193;51.032;6.356;2023-08-30T14:43:08;3.33;;;2.90;;
10295;SDS011;5193;51.032;6.356;2023-08-30T14:45:34;3.37;;;2.40;;
10295;SDS011;5193;51.032;6.356;2023-08-30T14:48:00;3.20;;;2.47;;
10295;SDS011;5193;51.032;6.356;2023-08-30T14:50:25;3.77;;;2.50;;
10295;SDS011;5193;51.032;6.356;2023-08-30T14:52:51;3.03;;;2.40;;
10295;SDS011;5193;51.032;6.356;2023-08-30T14:55:19;4.53;;;2.70;;
10295;SDS011;5193;51.032;6.356;2023-08-30T14:57:45;2.60;;;2.40;;